sensor_id;sensor_type;location;lat;lon;timestamp;P1;durP1;ratioP1;P2;durP2;ratioP2
22166;SDS011;11249;52.468;13.776;2022-12-05T00:01:25;217.43;;;73.20;;
22166;SDS011;11249;52.468;13.776;2022-12-05T00:03:58;215.77;;;72.78;;
22166;SDS011;11249;52.468;13.776;2022-12-05T00:06:27;235.25;;;72.28;;
22166;SDS011;11249;52.468;13.776;2022-12-05T00:08:55;230.43;;;73.85;;
22166;SDS011;11249;52.468;13.776;2022-12-05T00:11:24;225.95;;;71.65;;
22166;SDS011;11249;52.468;13.776;2022-12-05T00:13:53;242.48;;;74.60;;
22166;SDS011;11249;52.468;13.776;2022-12-05T00:16:22;201.98;;;69.38;;
22166;SDS011;11249;52.468;13.776;2022-12-05T00:18:51;235.00;;;72.57;;
22166;SDS011;11249;52.468;13.776;2022-12-05T00:21:18;204.30;;;70.05;;
22166;SDS011;11249;52.468;13.776;2022-12-05T00:23:46;233.93;;;71.00;;
22166;SDS011;11249;52.468;13.776;2022-12-05T00:26:14;217.93;;;70.95;;
22166;SDS011;11249;52.468;13.776;2022-12-05T00:28:41;207.52;;;68.13;;
22166;SDS011;11249;52.468;13.776;2022-12-05T00:31:10;203.50;;;67.32;;
22166;SDS011;11249;52.468;13.776;2022-12-05T00:33:41;209.20;;;66.88;;
22166;SDS011;11249;52.468;13.776;2022-12-05T00:36:11;226.90;;;71.78;;
22166;SDS011;11249;52.468;13.776;2022-12-05T00:38:43;202.48;;;70.22;;
22166;SDS011;11249;52.468;13.776;2022-12-05T00:41:11;210.40;;;69.18;;
22166;SDS011;11249;52.468;13.776;2022-12-05T00:43:39;188.77;;;69.30;;
22166;SDS011;11249;52.468;13.776;2022-12-05T00:46:08;205.35;;;72.47;;
22166;SDS011;11249;52.468;13.776;2022-12-05T00:48:37;204.32;;;66.90;;
22166;SDS011;11249;52.468;13.776;2022-12-05T00:51:18;207.70;;;68.18;;
22166;SDS011;11249;52.468;13.776;2022-12-05T00:53:49;198.52;;;68.22;;
22166;SDS011;11249;52.468;13.776;2022-12-05T00:56:17;193.93;;;67.10;;
22166;SDS011;11249;52.468;13.776;2022-12-05T00:58:49;209.20;;;68.15;;
22166;SDS011;11249;52.468;13.776;2022-12-05T01:01:22;216.48;;;69.05;;
22166;SDS011;11249;52.468;13.776;2022-12-05T01:03:51;203.68;;;67.32;;
22166;SDS011;11249;52.468;13.776;2022-12-05T01:06:20;198.52;;;68.95;;
22166;SDS011;11249;52.468;13.776;2022-12-05T01:08:47;193.75;;;66.40;;
22166;SDS011;11249;52.468;13.776;2022-12-05T01:11:15;212.57;;;66.45;;
22166;SDS011;11249;52.468;13.776;2022-12-05T01:13:44;206.10;;;69.00;;
22166;SDS011;11249;52.468;13.776;2022-12-05T01:16:22;186.40;;;63.67;;
22166;SDS011;11249;52.468;13.776;2022-12-05T01:18:54;181.82;;;65.03;;
22166;SDS011;11249;52.468;13.776;2022-12-05T01:21:22;186.65;;;64.75;;
22166;SDS011;11249;52.468;13.776;2022-12-05T01:23:49;180.75;;;63.17;;
22166;SDS011;11249;52.468;13.776;2022-12-05T01:26:17;188.23;;;62.63;;
22166;SDS011;11249;52.468;13.776;2022-12-05T01:28:46;205.90;;;68.03;;
22166;SDS011;11249;52.468;13.776;2022-12-05T01:31:16;186.52;;;64.65;;
22166;SDS011;11249;52.468;13.776;2022-12-05T01:33:50;201.18;;;64.50;;
22166;SDS011;11249;52.468;13.776;2022-12-05T01:36:18;193.60;;;65.50;;
22166;SDS011;11249;52.468;13.776;2022-12-05T01:38:45;178.25;;;62.83;;
22166;SDS011;11249;52.468;13.776;2022-12-05T01:41:14;182.25;;;63.03;;
22166;SDS011;11249;52.468;13.776;2022-12-05T01:43:55;179.27;;;63.60;;
22166;SDS011;11249;52.468;13.776;2022-12-05T01:46:24;175.93;;;65.13;;
22166;SDS011;11249;52.468;13.776;2022-12-05T01:48:54;169.75;;;61.80;;
22166;SDS011;11249;52.468;13.776;2022-12-05T01:51:32;189.48;;;64.78;;
22166;SDS011;11249;52.468;13.776;2022-12-05T01:53:59;166.52;;;62.15;;
22166;SDS011;11249;52.468;13.776;2022-12-05T01:56:26;177.65;;;65.05;;
22166;SDS011;11249;52.468;13.776;2022-12-05T01:58:54;173.98;;;62.15;;
22166;SDS011;11249;52.468;13.776;2022-12-05T02:01:21;174.57;;;64.13;;
22166;SDS011;11249;52.468;13.776;2022-12-05T02:03:49;171.15;;;61.25;;
22166;SDS011;11249;52.468;13.776;2022-12-05T02:06:19;168.63;;;61.58;;
22166;SDS011;11249;52.468;13.776;2022-12-05T02:08:47;161.85;;;60.97;;
22166;SDS011;11249;52.468;13.776;2022-12-05T02:11:14;171.45;;;63.17;;
22166;SDS011;11249;52.468;13.776;2022-12-05T02:13:46;164.18;;;61.42;;
22166;SDS011;11249;52.468;13.776;2022-12-05T02:16:42;187.48;;;65.65;;
22166;SDS011;11249;52.468;13.776;2022-12-05T02:22:41;177.80;;;62.60;;
22166;SDS011;11249;52.468;13.776;2022-12-05T02:28:31;161.38;;;59.22;;
22166;SDS011;11249;52.468;13.776;2022-12-05T02:31:09;163.05;;;62.17;;
22166;SDS011;11249;52.468;13.776;2022-12-05T02:33:52;159.27;;;59.03;;
22166;SDS011;11249;52.468;13.776;2022-12-05T02:36:39;167.45;;;61.10;;
22166;SDS011;11249;52.468;13.776;2022-12-05T02:39:16;157.60;;;60.75;;
22166;SDS011;11249;52.468;13.776;2022-12-05T02:41:52;174.77;;;62.28;;
22166;SDS011;11249;52.468;13.776;2022-12-05T02:44:30;152.20;;;60.55;;
22166;SDS011;11249;52.468;13.776;2022-12-05T02:47:05;174.43;;;62.28;;
22166;SDS011;11249;52.468;13.776;2022-12-05T02:49:34;161.13;;;60.05;;
22166;SDS011;11249;52.468;13.776;2022-12-05T02:52:05;149.00;;;56.40;;
22166;SDS011;11249;52.468;13.776;2022-12-05T02:54:36;155.10;;;57.83;;
22166;SDS011;11249;52.468;13.776;2022-12-05T02:57:06;167.85;;;59.17;;
22166;SDS011;11249;52.468;13.776;2022-12-05T02:59:35;151.68;;;60.28;;
22166;SDS011;11249;52.468;13.776;2022-12-05T03:02:02;147.60;;;56.25;;
22166;SDS011;11249;52.468;13.776;2022-12-05T03:04:29;157.90;;;57.42;;
22166;SDS011;11249;52.468;13.776;2022-12-05T03:06:58;151.85;;;55.20;;
22166;SDS011;11249;52.468;13.776;2022-12-05T03:09:36;166.25;;;61.05;;
22166;SDS011;11249;52.468;13.776;2022-12-05T03:12:19;150.90;;;58.55;;
22166;SDS011;11249;52.468;13.776;2022-12-05T03:14:55;155.60;;;55.25;;
22166;SDS011;11249;52.468;13.776;2022-12-05T03:17:29;156.02;;;56.85;;
22166;SDS011;11249;52.468;13.776;2022-12-05T03:20:04;162.85;;;57.85;;
22166;SDS011;11249;52.468;13.776;2022-12-05T03:22:40;158.02;;;59.33;;
22166;SDS011;11249;52.468;13.776;2022-12-05T03:25:11;145.35;;;58.20;;
22166;SDS011;11249;52.468;13.776;2022-12-05T03:27:52;162.70;;;56.97;;
22166;SDS011;11249;52.468;13.776;2022-12-05T03:30:31;151.30;;;55.20;;
22166;SDS011;11249;52.468;13.776;2022-12-05T03:33:13;155.05;;;55.20;;
22166;SDS011;11249;52.468;13.776;2022-12-05T03:35:51;159.60;;;57.85;;
22166;SDS011;11249;52.468;13.776;2022-12-05T03:38:39;143.27;;;53.45;;
22166;SDS011;11249;52.468;13.776;2022-12-05T03:41:24;148.57;;;58.03;;
22166;SDS011;11249;52.468;13.776;2022-12-05T03:44:11;152.00;;;56.00;;
22166;SDS011;11249;52.468;13.776;2022-12-05T03:47:05;154.45;;;57.25;;
22166;SDS011;11249;52.468;13.776;2022-12-05T03:49:41;144.20;;;56.03;;
22166;SDS011;11249;52.468;13.776;2022-12-05T03:52:15;162.90;;;57.28;;
22166;SDS011;11249;52.468;13.776;2022-12-05T03:54:54;144.07;;;55.90;;
22166;SDS011;11249;52.468;13.776;2022-12-05T03:57:28;144.85;;;55.08;;
22166;SDS011;11249;52.468;13.776;2022-12-05T04:03:06;140.80;;;53.42;;
22166;SDS011;11249;52.468;13.776;2022-12-05T04:10:57;130.70;;;51.15;;
22166;SDS011;11249;52.468;13.776;2022-12-05T04:21:51;122.32;;;51.05;;
22166;SDS011;11249;52.468;13.776;2022-12-05T04:24:22;134.65;;;50.83;;
22166;SDS011;11249;52.468;13.776;2022-12-05T04:27:22;118.03;;;48.20;;
22166;SDS011;11249;52.468;13.776;2022-12-05T04:30:05;119.87;;;48.27;;
22166;SDS011;11249;52.468;13.776;2022-12-05T04:35:22;119.60;;;46.22;;
22166;SDS011;11249;52.468;13.776;2022-12-05T04:38:31;120.35;;;47.65;;
22166;SDS011;11249;52.468;13.776;2022-12-05T04:40:59;115.20;;;46.00;;
22166;SDS011;11249;52.468;13.776;2022-12-05T04:43:29;106.65;;;44.97;;
22166;SDS011;11249;52.468;13.776;2022-12-05T04:46:00;111.50;;;44.83;;
22166;SDS011;11249;52.468;13.776;2022-12-05T04:48:31;96.68;;;42.88;;
22166;SDS011;11249;52.468;13.776;2022-12-05T04:51:00;103.70;;;46.10;;
22166;SDS011;11249;52.468;13.776;2022-12-05T04:53:29;99.88;;;44.55;;
22166;SDS011;11249;52.468;13.776;2022-12-05T04:55:58;99.15;;;42.67;;
22166;SDS011;11249;52.468;13.776;2022-12-05T04:58:27;95.32;;;42.38;;
22166;SDS011;11249;52.468;13.776;2022-12-05T05:00:56;95.95;;;41.20;;
22166;SDS011;11249;52.468;13.776;2022-12-05T05:03:33;94.60;;;40.50;;
22166;SDS011;11249;52.468;13.776;2022-12-05T05:06:11;94.95;;;39.97;;
22166;SDS011;11249;52.468;13.776;2022-12-05T05:08:46;97.90;;;42.75;;
22166;SDS011;11249;52.468;13.776;2022-12-05T05:13:48;90.18;;;40.38;;
22166;SDS011;11249;52.468;13.776;2022-12-05T05:16:16;88.35;;;38.75;;
22166;SDS011;11249;52.468;13.776;2022-12-05T05:18:45;81.03;;;38.55;;
22166;SDS011;11249;52.468;13.776;2022-12-05T05:21:23;88.82;;;38.17;;
22166;SDS011;11249;52.468;13.776;2022-12-05T05:24:01;83.47;;;39.10;;
22166;SDS011;11249;52.468;13.776;2022-12-05T05:26:29;72.95;;;36.55;;
22166;SDS011;11249;52.468;13.776;2022-12-05T05:28:58;80.53;;;37.25;;
22166;SDS011;11249;52.468;13.776;2022-12-05T05:31:25;79.20;;;37.30;;
22166;SDS011;11249;52.468;13.776;2022-12-05T05:33:53;77.28;;;34.95;;
22166;SDS011;11249;52.468;13.776;2022-12-05T05:36:21;67.53;;;32.33;;
22166;SDS011;11249;52.468;13.776;2022-12-05T05:38:50;64.85;;;32.38;;
22166;SDS011;11249;52.468;13.776;2022-12-05T05:41:20;68.45;;;32.78;;
22166;SDS011;11249;52.468;13.776;2022-12-05T05:43:48;67.18;;;33.08;;
22166;SDS011;11249;52.468;13.776;2022-12-05T05:46:16;66.22;;;31.55;;
22166;SDS011;11249;52.468;13.776;2022-12-05T05:48:44;67.40;;;32.55;;
22166;SDS011;11249;52.468;13.776;2022-12-05T05:51:11;63.15;;;30.42;;
22166;SDS011;11249;52.468;13.776;2022-12-05T05:53:39;59.85;;;30.20;;
22166;SDS011;11249;52.468;13.776;2022-12-05T05:56:07;56.92;;;30.17;;
22166;SDS011;11249;52.468;13.776;2022-12-05T05:58:36;62.08;;;31.80;;
22166;SDS011;11249;52.468;13.776;2022-12-05T06:03:31;62.33;;;30.42;;
22166;SDS011;11249;52.468;13.776;2022-12-05T06:05:59;57.47;;;30.92;;
22166;SDS011;11249;52.468;13.776;2022-12-05T06:08:28;62.15;;;31.20;;
22166;SDS011;11249;52.468;13.776;2022-12-05T06:10:55;60.50;;;28.70;;
22166;SDS011;11249;52.468;13.776;2022-12-05T06:13:22;58.53;;;29.73;;
22166;SDS011;11249;52.468;13.776;2022-12-05T06:15:49;58.40;;;28.90;;
22166;SDS011;11249;52.468;13.776;2022-12-05T06:18:16;58.28;;;30.50;;
22166;SDS011;11249;52.468;13.776;2022-12-05T06:20:50;58.08;;;30.17;;
22166;SDS011;11249;52.468;13.776;2022-12-05T06:25:51;61.67;;;29.73;;
22166;SDS011;11249;52.468;13.776;2022-12-05T06:28:20;57.27;;;29.87;;
22166;SDS011;11249;52.468;13.776;2022-12-05T06:30:48;62.42;;;30.10;;
22166;SDS011;11249;52.468;13.776;2022-12-05T06:33:15;59.78;;;30.60;;
22166;SDS011;11249;52.468;13.776;2022-12-05T06:35:42;61.15;;;30.10;;
22166;SDS011;11249;52.468;13.776;2022-12-05T06:38:09;62.67;;;31.00;;
22166;SDS011;11249;52.468;13.776;2022-12-05T06:40:43;65.05;;;30.60;;
22166;SDS011;11249;52.468;13.776;2022-12-05T06:43:10;63.88;;;30.35;;
22166;SDS011;11249;52.468;13.776;2022-12-05T06:45:37;61.92;;;29.60;;
22166;SDS011;11249;52.468;13.776;2022-12-05T06:48:04;60.53;;;29.95;;
22166;SDS011;11249;52.468;13.776;2022-12-05T06:50:31;59.55;;;31.05;;
22166;SDS011;11249;52.468;13.776;2022-12-05T06:52:58;59.63;;;30.45;;
22166;SDS011;11249;52.468;13.776;2022-12-05T06:55:25;60.75;;;30.52;;
22166;SDS011;11249;52.468;13.776;2022-12-05T06:57:52;64.18;;;30.10;;
22166;SDS011;11249;52.468;13.776;2022-12-05T07:00:19;62.25;;;29.98;;
22166;SDS011;11249;52.468;13.776;2022-12-05T07:03:04;64.30;;;31.70;;
22166;SDS011;11249;52.468;13.776;2022-12-05T07:05:31;61.55;;;29.38;;
22166;SDS011;11249;52.468;13.776;2022-12-05T07:07:58;56.05;;;29.05;;
22166;SDS011;11249;52.468;13.776;2022-12-05T07:10:25;59.20;;;28.23;;
22166;SDS011;11249;52.468;13.776;2022-12-05T07:12:52;57.58;;;29.23;;
22166;SDS011;11249;52.468;13.776;2022-12-05T07:15:19;61.92;;;28.30;;
22166;SDS011;11249;52.468;13.776;2022-12-05T07:17:45;63.50;;;30.38;;
22166;SDS011;11249;52.468;13.776;2022-12-05T07:20:12;59.92;;;29.08;;
22166;SDS011;11249;52.468;13.776;2022-12-05T07:22:42;60.15;;;29.90;;
22166;SDS011;11249;52.468;13.776;2022-12-05T07:25:10;55.72;;;27.35;;
22166;SDS011;11249;52.468;13.776;2022-12-05T07:27:37;59.28;;;29.52;;
22166;SDS011;11249;52.468;13.776;2022-12-05T07:30:04;54.63;;;29.10;;
22166;SDS011;11249;52.468;13.776;2022-12-05T07:32:32;61.65;;;29.20;;
22166;SDS011;11249;52.468;13.776;2022-12-05T07:34:59;60.30;;;30.70;;
22166;SDS011;11249;52.468;13.776;2022-12-05T07:37:26;65.45;;;30.23;;
22166;SDS011;11249;52.468;13.776;2022-12-05T07:39:53;61.85;;;30.25;;
22166;SDS011;11249;52.468;13.776;2022-12-05T07:42:20;60.17;;;28.60;;
22166;SDS011;11249;52.468;13.776;2022-12-05T07:44:47;61.85;;;29.67;;
22166;SDS011;11249;52.468;13.776;2022-12-05T07:47:13;60.65;;;30.27;;
22166;SDS011;11249;52.468;13.776;2022-12-05T07:49:40;52.70;;;28.70;;
22166;SDS011;11249;52.468;13.776;2022-12-05T07:52:07;56.28;;;29.63;;
22166;SDS011;11249;52.468;13.776;2022-12-05T07:54:35;63.58;;;30.40;;
22166;SDS011;11249;52.468;13.776;2022-12-05T07:57:01;65.45;;;29.35;;
22166;SDS011;11249;52.468;13.776;2022-12-05T07:59:28;63.78;;;28.95;;
22166;SDS011;11249;52.468;13.776;2022-12-05T08:01:55;54.67;;;28.08;;
22166;SDS011;11249;52.468;13.776;2022-12-05T08:04:22;64.28;;;28.92;;
22166;SDS011;11249;52.468;13.776;2022-12-05T08:06:49;61.92;;;28.45;;
22166;SDS011;11249;52.468;13.776;2022-12-05T08:09:15;54.22;;;27.60;;
22166;SDS011;11249;52.468;13.776;2022-12-05T08:11:42;61.28;;;28.60;;
22166;SDS011;11249;52.468;13.776;2022-12-05T08:14:16;58.25;;;29.70;;
22166;SDS011;11249;52.468;13.776;2022-12-05T08:16:43;54.88;;;27.90;;
22166;SDS011;11249;52.468;13.776;2022-12-05T08:19:10;51.38;;;27.48;;
22166;SDS011;11249;52.468;13.776;2022-12-05T08:21:42;54.45;;;27.70;;
22166;SDS011;11249;52.468;13.776;2022-12-05T08:24:09;52.00;;;25.63;;
22166;SDS011;11249;52.468;13.776;2022-12-05T08:26:37;47.47;;;25.75;;
22166;SDS011;11249;52.468;13.776;2022-12-05T08:31:40;49.92;;;25.55;;
22166;SDS011;11249;52.468;13.776;2022-12-05T08:36:37;42.90;;;23.58;;
22166;SDS011;11249;52.468;13.776;2022-12-05T08:39:05;48.47;;;24.95;;
22166;SDS011;11249;52.468;13.776;2022-12-05T08:41:33;44.70;;;23.73;;
22166;SDS011;11249;52.468;13.776;2022-12-05T08:44:01;47.88;;;23.73;;
22166;SDS011;11249;52.468;13.776;2022-12-05T08:46:31;44.28;;;23.80;;
22166;SDS011;11249;52.468;13.776;2022-12-05T08:48:58;46.70;;;22.88;;
22166;SDS011;11249;52.468;13.776;2022-12-05T08:51:26;43.78;;;23.42;;
22166;SDS011;11249;52.468;13.776;2022-12-05T08:53:52;43.03;;;23.42;;
22166;SDS011;11249;52.468;13.776;2022-12-05T08:56:21;37.60;;;21.67;;
22166;SDS011;11249;52.468;13.776;2022-12-05T08:58:52;40.33;;;21.73;;
22166;SDS011;11249;52.468;13.776;2022-12-05T09:01:26;42.03;;;21.88;;
22166;SDS011;11249;52.468;13.776;2022-12-05T09:03:57;37.05;;;21.88;;
22166;SDS011;11249;52.468;13.776;2022-12-05T09:06:30;41.55;;;22.48;;
22166;SDS011;11249;52.468;13.776;2022-12-05T09:08:59;37.85;;;21.50;;
22166;SDS011;11249;52.468;13.776;2022-12-05T09:11:31;39.95;;;21.65;;
22166;SDS011;11249;52.468;13.776;2022-12-05T09:13:59;39.67;;;22.42;;
22166;SDS011;11249;52.468;13.776;2022-12-05T09:16:28;41.03;;;21.73;;
22166;SDS011;11249;52.468;13.776;2022-12-05T09:19:03;44.55;;;21.85;;
22166;SDS011;11249;52.468;13.776;2022-12-05T09:21:31;35.85;;;19.90;;
22166;SDS011;11249;52.468;13.776;2022-12-05T09:23:58;43.63;;;24.20;;
22166;SDS011;11249;52.468;13.776;2022-12-05T09:26:26;42.67;;;21.80;;
22166;SDS011;11249;52.468;13.776;2022-12-05T09:28:53;46.70;;;24.42;;
22166;SDS011;11249;52.468;13.776;2022-12-05T09:31:22;46.85;;;23.63;;
22166;SDS011;11249;52.468;13.776;2022-12-05T09:33:51;46.00;;;24.70;;
22166;SDS011;11249;52.468;13.776;2022-12-05T09:36:19;43.13;;;24.55;;
22166;SDS011;11249;52.468;13.776;2022-12-05T09:38:48;40.30;;;24.58;;
22166;SDS011;11249;52.468;13.776;2022-12-05T09:47:13;41.08;;;24.42;;
22166;SDS011;11249;52.468;13.776;2022-12-05T09:55:19;49.20;;;26.88;;
22166;SDS011;11249;52.468;13.776;2022-12-05T09:57:48;50.97;;;26.92;;
22166;SDS011;11249;52.468;13.776;2022-12-05T10:00:24;49.80;;;24.98;;
22166;SDS011;11249;52.468;13.776;2022-12-05T10:02:57;48.45;;;26.63;;
22166;SDS011;11249;52.468;13.776;2022-12-05T10:05:57;53.28;;;27.20;;
22166;SDS011;11249;52.468;13.776;2022-12-05T10:11:33;54.50;;;27.38;;
22166;SDS011;11249;52.468;13.776;2022-12-05T10:16:57;48.13;;;26.10;;
22166;SDS011;11249;52.468;13.776;2022-12-05T10:19:47;57.08;;;28.85;;
22166;SDS011;11249;52.468;13.776;2022-12-05T10:25:02;56.92;;;29.83;;
22166;SDS011;11249;52.468;13.776;2022-12-05T10:27:32;55.28;;;28.42;;
22166;SDS011;11249;52.468;13.776;2022-12-05T10:37:50;56.47;;;29.45;;
22166;SDS011;11249;52.468;13.776;2022-12-05T10:40:19;62.75;;;29.48;;
22166;SDS011;11249;52.468;13.776;2022-12-05T10:42:46;61.97;;;30.73;;
22166;SDS011;11249;52.468;13.776;2022-12-05T10:45:18;60.17;;;30.85;;
22166;SDS011;11249;52.468;13.776;2022-12-05T10:47:47;62.72;;;31.17;;
22166;SDS011;11249;52.468;13.776;2022-12-05T10:50:21;58.92;;;30.42;;
22166;SDS011;11249;52.468;13.776;2022-12-05T10:53:01;58.60;;;29.35;;
22166;SDS011;11249;52.468;13.776;2022-12-05T10:55:31;69.65;;;30.25;;
22166;SDS011;11249;52.468;13.776;2022-12-05T11:00:43;57.90;;;30.38;;
22166;SDS011;11249;52.468;13.776;2022-12-05T11:03:25;54.97;;;31.30;;
22166;SDS011;11249;52.468;13.776;2022-12-05T11:05:57;57.97;;;29.23;;
22166;SDS011;11249;52.468;13.776;2022-12-05T11:08:27;61.28;;;30.00;;
22166;SDS011;11249;52.468;13.776;2022-12-05T11:11:26;57.80;;;30.02;;
22166;SDS011;11249;52.468;13.776;2022-12-05T11:13:59;58.65;;;30.00;;
22166;SDS011;11249;52.468;13.776;2022-12-05T11:16:28;59.42;;;30.08;;
22166;SDS011;11249;52.468;13.776;2022-12-05T11:19:17;54.78;;;29.73;;
22166;SDS011;11249;52.468;13.776;2022-12-05T11:21:56;56.67;;;29.35;;
22166;SDS011;11249;52.468;13.776;2022-12-05T11:24:31;58.38;;;29.90;;
22166;SDS011;11249;52.468;13.776;2022-12-05T11:29:41;57.13;;;29.48;;
22166;SDS011;11249;52.468;13.776;2022-12-05T11:32:17;54.30;;;29.95;;
22166;SDS011;11249;52.468;13.776;2022-12-05T11:34:48;58.15;;;29.33;;
22166;SDS011;11249;52.468;13.776;2022-12-05T11:37:20;49.22;;;26.75;;
22166;SDS011;11249;52.468;13.776;2022-12-05T11:39:50;55.28;;;28.88;;
22166;SDS011;11249;52.468;13.776;2022-12-05T11:42:32;54.38;;;28.00;;
22166;SDS011;11249;52.468;13.776;2022-12-05T11:45:32;54.15;;;28.90;;
22166;SDS011;11249;52.468;13.776;2022-12-05T11:48:13;49.15;;;25.65;;
22166;SDS011;11249;52.468;13.776;2022-12-05T11:51:01;53.85;;;26.40;;
22166;SDS011;11249;52.468;13.776;2022-12-05T12:07:24;46.78;;;25.77;;
22166;SDS011;11249;52.468;13.776;2022-12-05T12:10:19;52.92;;;27.10;;
22166;SDS011;11249;52.468;13.776;2022-12-05T12:15:51;51.90;;;27.73;;
22166;SDS011;11249;52.468;13.776;2022-12-05T12:18:38;52.42;;;28.83;;
22166;SDS011;11249;52.468;13.776;2022-12-05T12:21:17;57.20;;;27.92;;
22166;SDS011;11249;52.468;13.776;2022-12-05T12:24:05;50.67;;;28.30;;
22166;SDS011;11249;52.468;13.776;2022-12-05T12:33:02;56.95;;;28.55;;
22166;SDS011;11249;52.468;13.776;2022-12-05T12:43:45;58.83;;;30.15;;
22166;SDS011;11249;52.468;13.776;2022-12-05T12:46:25;58.10;;;29.83;;
22166;SDS011;11249;52.468;13.776;2022-12-05T12:51:35;62.38;;;31.65;;
22166;SDS011;11249;52.468;13.776;2022-12-05T12:54:17;55.33;;;30.50;;
22166;SDS011;11249;52.468;13.776;2022-12-05T12:57:29;55.08;;;28.95;;
22166;SDS011;11249;52.468;13.776;2022-12-05T13:00:21;59.33;;;30.73;;
22166;SDS011;11249;52.468;13.776;2022-12-05T13:03:00;61.70;;;31.67;;
22166;SDS011;11249;52.468;13.776;2022-12-05T13:05:50;55.60;;;29.23;;
22166;SDS011;11249;52.468;13.776;2022-12-05T13:08:25;65.15;;;30.25;;
22166;SDS011;11249;52.468;13.776;2022-12-05T13:11:13;57.08;;;30.45;;
22166;SDS011;11249;52.468;13.776;2022-12-05T13:13:43;54.15;;;29.52;;
22166;SDS011;11249;52.468;13.776;2022-12-05T13:16:16;58.72;;;29.73;;
22166;SDS011;11249;52.468;13.776;2022-12-05T13:18:51;56.20;;;28.58;;
22166;SDS011;11249;52.468;13.776;2022-12-05T13:21:20;52.80;;;28.75;;
22166;SDS011;11249;52.468;13.776;2022-12-05T13:23:49;58.03;;;30.13;;
22166;SDS011;11249;52.468;13.776;2022-12-05T13:26:20;60.70;;;29.63;;
22166;SDS011;11249;52.468;13.776;2022-12-05T13:31:39;54.83;;;29.20;;
22166;SDS011;11249;52.468;13.776;2022-12-05T13:37:08;51.65;;;27.50;;
22166;SDS011;11249;52.468;13.776;2022-12-05T13:39:56;59.40;;;30.65;;
22166;SDS011;11249;52.468;13.776;2022-12-05T13:42:42;57.20;;;28.33;;
22166;SDS011;11249;52.468;13.776;2022-12-05T13:45:10;53.83;;;28.55;;
22166;SDS011;11249;52.468;13.776;2022-12-05T13:47:50;58.08;;;30.50;;
22166;SDS011;11249;52.468;13.776;2022-12-05T13:55:55;57.53;;;30.23;;
22166;SDS011;11249;52.468;13.776;2022-12-05T14:03:59;63.53;;;29.52;;
22166;SDS011;11249;52.468;13.776;2022-12-05T14:17:23;63.05;;;30.40;;
22166;SDS011;11249;52.468;13.776;2022-12-05T14:20:30;73.25;;;32.70;;
22166;SDS011;11249;52.468;13.776;2022-12-05T14:26:32;73.95;;;34.25;;
22166;SDS011;11249;52.468;13.776;2022-12-05T14:29:26;57.75;;;30.60;;
22166;SDS011;11249;52.468;13.776;2022-12-05T14:32:16;79.32;;;34.35;;
22166;SDS011;11249;52.468;13.776;2022-12-05T14:40:38;77.70;;;33.40;;
22166;SDS011;11249;52.468;13.776;2022-12-05T14:43:34;77.53;;;35.10;;
22166;SDS011;11249;52.468;13.776;2022-12-05T14:45:58;80.75;;;35.50;;
22166;SDS011;11249;52.468;13.776;2022-12-05T14:48:42;84.82;;;36.45;;
22166;SDS011;11249;52.468;13.776;2022-12-05T14:54:17;75.15;;;35.80;;
22166;SDS011;11249;52.468;13.776;2022-12-05T14:56:45;73.97;;;33.00;;
22166;SDS011;11249;52.468;13.776;2022-12-05T15:02:01;85.10;;;36.60;;
22166;SDS011;11249;52.468;13.776;2022-12-05T15:04:42;70.97;;;33.35;;
22166;SDS011;11249;52.468;13.776;2022-12-05T15:07:19;78.47;;;35.85;;
22166;SDS011;11249;52.468;13.776;2022-12-05T15:12:35;96.78;;;38.10;;
22166;SDS011;11249;52.468;13.776;2022-12-05T15:15:14;89.70;;;36.20;;
22166;SDS011;11249;52.468;13.776;2022-12-05T15:17:50;83.63;;;36.13;;
22166;SDS011;11249;52.468;13.776;2022-12-05T15:20:25;80.13;;;35.15;;
22166;SDS011;11249;52.468;13.776;2022-12-05T15:26:20;83.85;;;36.33;;
22166;SDS011;11249;52.468;13.776;2022-12-05T15:29:13;82.22;;;36.05;;
22166;SDS011;11249;52.468;13.776;2022-12-05T15:31:49;81.82;;;37.17;;
22166;SDS011;11249;52.468;13.776;2022-12-05T15:36:51;83.60;;;38.47;;
22166;SDS011;11249;52.468;13.776;2022-12-05T15:39:23;87.05;;;37.30;;
22166;SDS011;11249;52.468;13.776;2022-12-05T15:41:51;78.28;;;35.20;;
22166;SDS011;11249;52.468;13.776;2022-12-05T15:44:19;88.95;;;37.80;;
22166;SDS011;11249;52.468;13.776;2022-12-05T15:46:53;90.95;;;37.47;;
22166;SDS011;11249;52.468;13.776;2022-12-05T15:49:23;93.38;;;38.58;;
22166;SDS011;11249;52.468;13.776;2022-12-05T15:51:52;114.30;;;40.90;;
22166;SDS011;11249;52.468;13.776;2022-12-05T15:54:24;121.70;;;40.25;;
22166;SDS011;11249;52.468;13.776;2022-12-05T15:57:04;85.75;;;34.65;;
22166;SDS011;11249;52.468;13.776;2022-12-05T15:59:46;83.75;;;35.83;;
22166;SDS011;11249;52.468;13.776;2022-12-05T16:02:20;86.93;;;35.70;;
22166;SDS011;11249;52.468;13.776;2022-12-05T16:04:51;113.32;;;40.50;;
22166;SDS011;11249;52.468;13.776;2022-12-05T16:07:21;79.80;;;36.28;;
22166;SDS011;11249;52.468;13.776;2022-12-05T16:09:54;81.10;;;35.47;;
22166;SDS011;11249;52.468;13.776;2022-12-05T16:15:00;92.75;;;38.40;;
22166;SDS011;11249;52.468;13.776;2022-12-05T16:17:36;86.65;;;37.25;;
22166;SDS011;11249;52.468;13.776;2022-12-05T16:20:11;87.47;;;36.78;;
22166;SDS011;11249;52.468;13.776;2022-12-05T16:22:52;80.25;;;34.83;;
22166;SDS011;11249;52.468;13.776;2022-12-05T16:25:24;98.40;;;38.47;;
22166;SDS011;11249;52.468;13.776;2022-12-05T16:28:12;111.03;;;40.75;;
22166;SDS011;11249;52.468;13.776;2022-12-05T16:30:54;115.47;;;40.20;;
22166;SDS011;11249;52.468;13.776;2022-12-05T16:33:25;109.47;;;39.50;;
22166;SDS011;11249;52.468;13.776;2022-12-05T16:35:54;95.13;;;38.95;;
22166;SDS011;11249;52.468;13.776;2022-12-05T16:38:25;94.35;;;38.60;;
22166;SDS011;11249;52.468;13.776;2022-12-05T16:40:56;96.30;;;37.25;;
22166;SDS011;11249;52.468;13.776;2022-12-05T16:45:53;131.27;;;40.72;;
22166;SDS011;11249;52.468;13.776;2022-12-05T16:48:23;86.15;;;36.50;;
22166;SDS011;11249;52.468;13.776;2022-12-05T16:53:42;84.68;;;36.15;;
22166;SDS011;11249;52.468;13.776;2022-12-05T16:56:23;115.88;;;40.08;;
22166;SDS011;11249;52.468;13.776;2022-12-05T16:58:55;113.40;;;38.40;;
22166;SDS011;11249;52.468;13.776;2022-12-05T17:01:25;112.63;;;39.47;;
22166;SDS011;11249;52.468;13.776;2022-12-05T17:03:53;166.38;;;42.67;;
22166;SDS011;11249;52.468;13.776;2022-12-05T17:06:21;85.38;;;36.08;;
22166;SDS011;11249;52.468;13.776;2022-12-05T17:08:50;119.67;;;39.00;;
22166;SDS011;11249;52.468;13.776;2022-12-05T17:11:31;128.38;;;41.20;;
22166;SDS011;11249;52.468;13.776;2022-12-05T17:14:00;88.10;;;38.08;;
22166;SDS011;11249;52.468;13.776;2022-12-05T17:16:28;114.82;;;39.08;;
22166;SDS011;11249;52.468;13.776;2022-12-05T17:18:54;115.28;;;41.47;;
22166;SDS011;11249;52.468;13.776;2022-12-05T17:21:21;82.80;;;36.35;;